sensor_id;sensor_type;location;lat;lon;timestamp;temperature;humidity
5086;DHT22;4715;51.660;7.082;2024-02-16T00:01:23;13.40;99.90
5086;DHT22;4715;51.660;7.082;2024-02-16T00:03:46;13.40;99.90
5086;DHT22;4715;51.660;7.082;2024-02-16T00:06:08;13.40;99.90
5086;DHT22;4715;51.660;7.082;2024-02-16T00:08:34;13.40;99.90
5086;DHT22;4715;51.660;7.082;2024-02-16T00:11:00;13.40;99.90
5086;DHT22;4715;51.660;7.082;2024-02-16T00:13:22;13.40;99.90
5086;DHT22;4715;51.660;7.082;2024-02-16T00:15:44;13.40;99.90
5086;DHT22;4715;51.660;7.082;2024-02-16T00:18:06;13.40;99.90
5086;DHT22;4715;51.660;7.082;2024-02-16T00:20:28;13.50;99.90
5086;DHT22;4715;51.660;7.082;2024-02-16T00:22:52;13.50;99.90
5086;DHT22;4715;51.660;7.082;2024-02-16T00:25:17;13.50;99.90
5086;DHT22;4715;51.660;7.082;2024-02-16T00:27:40;13.50;99.90
5086;DHT22;4715;51.660;7.082;2024-02-16T00:30:03;13.40;99.90
5086;DHT22;4715;51.660;7.082;2024-02-16T00:32:24;13.40;99.90
5086;DHT22;4715;51.660;7.082;2024-02-16T00:34:51;13.40;99.90
5086;DHT22;4715;51.660;7.082;2024-02-16T00:37:14;13.40;99.90
5086;DHT22;4715;51.660;7.082;2024-02-16T00:39:44;13.40;99.90
5086;DHT22;4715;51.660;7.082;2024-02-16T00:42:09;13.40;99.90
5086;DHT22;4715;51.660;7.082;2024-02-16T00:44:31;13.40;99.90
5086;DHT22;4715;51.660;7.082;2024-02-16T00:46:53;13.40;99.90
5086;DHT22;4715;51.660;7.082;2024-02-16T00:49:15;13.40;99.90
5086;DHT22;4715;51.660;7.082;2024-02-16T00:51:36;13.40;99.90
5086;DHT22;4715;51.660;7.082;2024-02-16T00:54:01;13.40;99.90
5086;DHT22;4715;51.660;7.082;2024-02-16T00:56:23;13.30;99.90
5086;DHT22;4715;51.660;7.082;2024-02-16T00:58:47;13.30;99.90
5086;DHT22;4715;51.660;7.082;2024-02-16T01:01:12;13.30;99.90
5086;DHT22;4715;51.660;7.082;2024-02-16T01:03:34;13.30;99.90
5086;DHT22;4715;51.660;7.082;2024-02-16T01:05:55;13.30;99.90
5086;DHT22;4715;51.660;7.082;2024-02-16T01:08:17;13.30;99.90
5086;DHT22;4715;51.660;7.082;2024-02-16T01:10:40;13.30;99.90
5086;DHT22;4715;51.660;7.082;2024-02-16T01:13:02;13.30;99.90
5086;DHT22;4715;51.660;7.082;2024-02-16T01:15:29;13.30;99.90
5086;DHT22;4715;51.660;7.082;2024-02-16T01:17:53;13.30;99.90
5086;DHT22;4715;51.660;7.082;2024-02-16T01:20:15;13.30;99.90
5086;DHT22;4715;51.660;7.082;2024-02-16T01:22:37;13.30;99.90
5086;DHT22;4715;51.660;7.082;2024-02-16T01:24:59;13.30;99.90
5086;DHT22;4715;51.660;7.082;2024-02-16T01:27:21;13.20;99.90
5086;DHT22;4715;51.660;7.082;2024-02-16T01:29:43;13.20;99.90
5086;DHT22;4715;51.660;7.082;2024-02-16T01:32:06;13.20;99.90
5086;DHT22;4715;51.660;7.082;2024-02-16T01:34:28;13.20;99.90
5086;DHT22;4715;51.660;7.082;2024-02-16T01:36:52;13.20;99.90
5086;DHT22;4715;51.660;7.082;2024-02-16T01:39:13;13.20;99.90
5086;DHT22;4715;51.660;7.082;2024-02-16T01:41:38;13.20;99.90
5086;DHT22;4715;51.660;7.082;2024-02-16T01:44:00;13.20;99.90
5086;DHT22;4715;51.660;7.082;2024-02-16T01:46:25;13.20;99.90
5086;DHT22;4715;51.660;7.082;2024-02-16T01:48:49;13.20;99.90
5086;DHT22;4715;51.660;7.082;2024-02-16T01:51:12;13.20;99.90
5086;DHT22;4715;51.660;7.082;2024-02-16T01:53:36;13.20;99.90
5086;DHT22;4715;51.660;7.082;2024-02-16T01:55:58;13.20;99.90
5086;DHT22;4715;51.660;7.082;2024-02-16T01:58:21;13.20;99.90
5086;DHT22;4715;51.660;7.082;2024-02-16T02:00:43;13.20;99.90
5086;DHT22;4715;51.660;7.082;2024-02-16T02:03:05;13.20;99.90
5086;DHT22;4715;51.660;7.082;2024-02-16T02:05:28;13.30;99.90
5086;DHT22;4715;51.660;7.082;2024-02-16T02:07:50;13.30;99.90
5086;DHT22;4715;51.660;7.082;2024-02-16T02:10:13;13.30;99.90
5086;DHT22;4715;51.660;7.082;2024-02-16T02:12:35;13.30;99.90
5086;DHT22;4715;51.660;7.082;2024-02-16T02:14:57;13.30;99.90
5086;DHT22;4715;51.660;7.082;2024-02-16T02:17:19;13.40;99.90
5086;DHT22;4715;51.660;7.082;2024-02-16T02:19:42;13.40;99.90
5086;DHT22;4715;51.660;7.082;2024-02-16T02:22:15;13.40;99.90
5086;DHT22;4715;51.660;7.082;2024-02-16T02:24:37;13.40;99.90
5086;DHT22;4715;51.660;7.082;2024-02-16T02:26:59;13.40;99.90
5086;DHT22;4715;51.660;7.082;2024-02-16T02:29:21;13.30;99.90
5086;DHT22;4715;51.660;7.082;2024-02-16T02:31:42;13.30;99.90
5086;DHT22;4715;51.660;7.082;2024-02-16T02:34:05;13.30;99.90
5086;DHT22;4715;51.660;7.082;2024-02-16T02:36:26;13.30;99.90
5086;DHT22;4715;51.660;7.082;2024-02-16T02:38:50;13.30;99.90
5086;DHT22;4715;51.660;7.082;2024-02-16T02:41:11;13.30;99.90
5086;DHT22;4715;51.660;7.082;2024-02-16T02:43:36;13.30;99.90
5086;DHT22;4715;51.660;7.082;2024-02-16T02:46:00;13.30;99.90
5086;DHT22;4715;51.660;7.082;2024-02-16T02:48:27;13.30;99.90
5086;DHT22;4715;51.660;7.082;2024-02-16T02:50:49;13.30;99.90
5086;DHT22;4715;51.660;7.082;2024-02-16T02:53:11;13.30;99.90
5086;DHT22;4715;51.660;7.082;2024-02-16T02:55:34;13.30;99.90
5086;DHT22;4715;51.660;7.082;2024-02-16T02:57:56;13.30;99.90
5086;DHT22;4715;51.660;7.082;2024-02-16T03:00:19;13.30;99.90
5086;DHT22;4715;51.660;7.082;2024-02-16T03:02:41;13.30;99.90
5086;DHT22;4715;51.660;7.082;2024-02-16T03:05:05;13.30;99.90
5086;DHT22;4715;51.660;7.082;2024-02-16T03:07:27;13.30;99.90
5086;DHT22;4715;51.660;7.082;2024-02-16T03:09:49;13.20;99.90
5086;DHT22;4715;51.660;7.082;2024-02-16T03:12:12;13.20;99.90
5086;DHT22;4715;51.660;7.082;2024-02-16T03:14:34;13.20;99.90
5086;DHT22;4715;51.660;7.082;2024-02-16T03:16:58;13.20;99.90
5086;DHT22;4715;51.660;7.082;2024-02-16T03:19:20;13.20;99.90
5086;DHT22;4715;51.660;7.082;2024-02-16T03:21:42;13.20;99.90
5086;DHT22;4715;51.660;7.082;2024-02-16T03:24:05;13.20;99.90
5086;DHT22;4715;51.660;7.082;2024-02-16T03:26:27;13.20;99.90
5086;DHT22;4715;51.660;7.082;2024-02-16T03:28:53;13.20;99.90
5086;DHT22;4715;51.660;7.082;2024-02-16T03:31:17;13.20;99.90
5086;DHT22;4715;51.660;7.082;2024-02-16T03:33:39;13.20;99.90
5086;DHT22;4715;51.660;7.082;2024-02-16T03:36:02;13.20;99.90
5086;DHT22;4715;51.660;7.082;2024-02-16T03:38:24;13.20;99.90
5086;DHT22;4715;51.660;7.082;2024-02-16T03:40:46;13.20;99.90
5086;DHT22;4715;51.660;7.082;2024-02-16T03:43:08;13.20;99.90
5086;DHT22;4715;51.660;7.082;2024-02-16T03:45:30;13.20;99.90
5086;DHT22;4715;51.660;7.082;2024-02-16T03:47:52;13.20;99.90
5086;DHT22;4715;51.660;7.082;2024-02-16T03:50:15;13.20;99.90
5086;DHT22;4715;51.660;7.082;2024-02-16T03:52:37;13.20;99.90
5086;DHT22;4715;51.660;7.082;2024-02-16T03:54:59;13.20;99.90
5086;DHT22;4715;51.660;7.082;2024-02-16T03:57:21;13.30;99.90
5086;DHT22;4715;51.660;7.082;2024-02-16T03:59:43;13.30;99.90
5086;DHT22;4715;51.660;7.082;2024-02-16T04:02:06;13.30;99.90
5086;DHT22;4715;51.660;7.082;2024-02-16T04:04:28;13.30;99.90
5086;DHT22;4715;51.660;7.082;2024-02-16T04:06:52;13.30;99.90
5086;DHT22;4715;51.660;7.082;2024-02-16T04:09:14;13.30;99.90
5086;DHT22;4715;51.660;7.082;2024-02-16T04:11:37;13.30;99.90
5086;DHT22;4715;51.660;7.082;2024-02-16T04:13:59;13.30;99.90
5086;DHT22;4715;51.660;7.082;2024-02-16T04:16:21;13.30;99.90
5086;DHT22;4715;51.660;7.082;2024-02-16T04:18:47;13.30;99.90
5086;DHT22;4715;51.660;7.082;2024-02-16T04:21:09;13.30;99.90
5086;DHT22;4715;51.660;7.082;2024-02-16T04:23:33;13.30;99.90
5086;DHT22;4715;51.660;7.082;2024-02-16T04:25:57;13.40;99.90
5086;DHT22;4715;51.660;7.082;2024-02-16T04:28:19;13.40;99.90
5086;DHT22;4715;51.660;7.082;2024-02-16T04:30:41;13.40;99.90
5086;DHT22;4715;51.660;7.082;2024-02-16T04:33:03;13.50;99.90
5086;DHT22;4715;51.660;7.082;2024-02-16T04:35:27;13.40;99.90
5086;DHT22;4715;51.660;7.082;2024-02-16T04:37:48;13.50;99.90
5086;DHT22;4715;51.660;7.082;2024-02-16T04:40:11;13.50;99.90
5086;DHT22;4715;51.660;7.082;2024-02-16T04:42:35;13.50;99.90
5086;DHT22;4715;51.660;7.082;2024-02-16T04:44:58;13.50;99.90
5086;DHT22;4715;51.660;7.082;2024-02-16T04:47:20;13.50;99.90
5086;DHT22;4715;51.660;7.082;2024-02-16T04:49:43;13.50;99.90
5086;DHT22;4715;51.660;7.082;2024-02-16T04:52:06;13.50;99.90
5086;DHT22;4715;51.660;7.082;2024-02-16T04:54:29;13.50;99.90
5086;DHT22;4715;51.660;7.082;2024-02-16T04:56:51;13.50;99.90
5086;DHT22;4715;51.660;7.082;2024-02-16T04:59:16;13.50;99.90
5086;DHT22;4715;51.660;7.082;2024-02-16T05:01:38;13.50;99.90
5086;DHT22;4715;51.660;7.082;2024-02-16T05:03:59;13.50;99.90
5086;DHT22;4715;51.660;7.082;2024-02-16T05:06:22;13.50;99.90
5086;DHT22;4715;51.660;7.082;2024-02-16T05:08:46;13.50;99.90
5086;DHT22;4715;51.660;7.082;2024-02-16T05:11:08;13.50;99.90
5086;DHT22;4715;51.660;7.082;2024-02-16T05:13:31;13.50;99.90
5086;DHT22;4715;51.660;7.082;2024-02-16T05:15:55;13.50;99.90
5086;DHT22;4715;51.660;7.082;2024-02-16T05:18:17;13.50;99.90
5086;DHT22;4715;51.660;7.082;2024-02-16T05:20:40;13.50;99.90
5086;DHT22;4715;51.660;7.082;2024-02-16T05:23:02;13.50;99.90
5086;DHT22;4715;51.660;7.082;2024-02-16T05:25:25;13.50;99.90
5086;DHT22;4715;51.660;7.082;2024-02-16T05:27:48;13.50;99.90
5086;DHT22;4715;51.660;7.082;2024-02-16T05:30:11;13.50;99.90
5086;DHT22;4715;51.660;7.082;2024-02-16T05:32:36;13.40;99.90
5086;DHT22;4715;51.660;7.082;2024-02-16T05:34:59;13.40;99.90
5086;DHT22;4715;51.660;7.082;2024-02-16T05:37:21;13.40;99.90
5086;DHT22;4715;51.660;7.082;2024-02-16T05:39:43;13.40;99.90
5086;DHT22;4715;51.660;7.082;2024-02-16T05:42:15;13.40;99.90
5086;DHT22;4715;51.660;7.082;2024-02-16T05:44:37;13.40;99.90
5086;DHT22;4715;51.660;7.082;2024-02-16T05:46:59;13.30;99.90
5086;DHT22;4715;51.660;7.082;2024-02-16T05:49:21;13.30;99.90
5086;DHT22;4715;51.660;7.082;2024-02-16T05:51:45;13.30;99.90
5086;DHT22;4715;51.660;7.082;2024-02-16T05:54:26;13.30;99.90
5086;DHT22;4715;51.660;7.082;2024-02-16T05:56:50;13.20;99.90
5086;DHT22;4715;51.660;7.082;2024-02-16T05:59:18;13.20;99.90
5086;DHT22;4715;51.660;7.082;2024-02-16T06:01:40;13.20;99.90
5086;DHT22;4715;51.660;7.082;2024-02-16T06:04:04;13.20;99.90
5086;DHT22;4715;51.660;7.082;2024-02-16T06:06:26;13.10;99.90
5086;DHT22;4715;51.660;7.082;2024-02-16T06:08:51;13.10;99.90
5086;DHT22;4715;51.660;7.082;2024-02-16T06:11:13;13.10;99.90
5086;DHT22;4715;51.660;7.082;2024-02-16T06:13:36;13.10;99.90
5086;DHT22;4715;51.660;7.082;2024-02-16T06:16:00;13.10;99.90
5086;DHT22;4715;51.660;7.082;2024-02-16T06:18:22;13.10;99.90
5086;DHT22;4715;51.660;7.082;2024-02-16T06:20:45;13.10;99.90
5086;DHT22;4715;51.660;7.082;2024-02-16T06:23:07;13.10;99.90
5086;DHT22;4715;51.660;7.082;2024-02-16T06:25:31;13.10;99.90
5086;DHT22;4715;51.660;7.082;2024-02-16T06:27:53;13.10;99.90
5086;DHT22;4715;51.660;7.082;2024-02-16T06:30:20;13.10;99.90
5086;DHT22;4715;51.660;7.082;2024-02-16T06:32:45;13.10;99.90
5086;DHT22;4715;51.660;7.082;2024-02-16T06:35:08;13.10;99.90
5086;DHT22;4715;51.660;7.082;2024-02-16T06:37:31;13.10;99.90
5086;DHT22;4715;51.660;7.082;2024-02-16T06:39:53;13.10;99.90
5086;DHT22;4715;51.660;7.082;2024-02-16T06:42:15;13.00;99.90
5086;DHT22;4715;51.660;7.082;2024-02-16T06:44:37;13.10;99.90
5086;DHT22;4715;51.660;7.082;2024-02-16T06:46:58;13.10;99.90
5086;DHT22;4715;51.660;7.082;2024-02-16T06:49:21;13.00;99.90
5086;DHT22;4715;51.660;7.082;2024-02-16T06:51:45;13.10;99.90
5086;DHT22;4715;51.660;7.082;2024-02-16T06:54:07;13.10;99.90
5086;DHT22;4715;51.660;7.082;2024-02-16T06:56:29;13.10;99.90
5086;DHT22;4715;51.660;7.082;2024-02-16T06:58:51;13.20;99.90
5086;DHT22;4715;51.660;7.082;2024-02-16T07:01:14;13.10;99.90
5086;DHT22;4715;51.660;7.082;2024-02-16T07:03:39;13.20;99.90
5086;DHT22;4715;51.660;7.082;2024-02-16T07:06:06;13.20;99.90
5086;DHT22;4715;51.660;7.082;2024-02-16T07:08:31;13.20;99.90
5086;DHT22;4715;51.660;7.082;2024-02-16T07:10:55;13.20;99.90
5086;DHT22;4715;51.660;7.082;2024-02-16T07:13:18;13.20;99.90
5086;DHT22;4715;51.660;7.082;2024-02-16T07:15:41;13.20;99.90
5086;DHT22;4715;51.660;7.082;2024-02-16T07:18:03;13.20;99.90
5086;DHT22;4715;51.660;7.082;2024-02-16T07:20:25;13.30;99.90
5086;DHT22;4715;51.660;7.082;2024-02-16T07:22:49;13.30;99.90
5086;DHT22;4715;51.660;7.082;2024-02-16T07:25:12;13.30;99.90
5086;DHT22;4715;51.660;7.082;2024-02-16T07:27:34;13.30;99.90
5086;DHT22;4715;51.660;7.082;2024-02-16T07:29:56;13.30;99.90
5086;DHT22;4715;51.660;7.082;2024-02-16T07:32:18;13.30;99.90
5086;DHT22;4715;51.660;7.082;2024-02-16T07:34:40;13.30;99.90
5086;DHT22;4715;51.660;7.082;2024-02-16T07:37:02;13.40;99.90
5086;DHT22;4715;51.660;7.082;2024-02-16T07:39:25;13.40;99.90
5086;DHT22;4715;51.660;7.082;2024-02-16T07:41:47;13.40;99.90
5086;DHT22;4715;51.660;7.082;2024-02-16T07:44:10;13.40;99.90
5086;DHT22;4715;51.660;7.082;2024-02-16T07:46:39;13.40;99.90
5086;DHT22;4715;51.660;7.082;2024-02-16T07:49:01;13.50;99.90
5086;DHT22;4715;51.660;7.082;2024-02-16T07:51:26;13.50;99.90
5086;DHT22;4715;51.660;7.082;2024-02-16T07:53:49;13.60;99.90
5086;DHT22;4715;51.660;7.082;2024-02-16T07:56:12;13.70;99.90
5086;DHT22;4715;51.660;7.082;2024-02-16T07:58:36;13.80;99.90
5086;DHT22;4715;51.660;7.082;2024-02-16T08:00:58;13.80;99.90
5086;DHT22;4715;51.660;7.082;2024-02-16T08:03:20;13.90;99.90
5086;DHT22;4715;51.660;7.082;2024-02-16T08:05:42;13.90;99.90
5086;DHT22;4715;51.660;7.082;2024-02-16T08:08:05;14.00;99.90
5086;DHT22;4715;51.660;7.082;2024-02-16T08:10:29;14.10;99.90
5086;DHT22;4715;51.660;7.082;2024-02-16T08:12:52;14.10;99.90
5086;DHT22;4715;51.660;7.082;2024-02-16T08:15:16;14.20;99.90
5086;DHT22;4715;51.660;7.082;2024-02-16T08:17:43;14.20;99.90
5086;DHT22;4715;51.660;7.082;2024-02-16T08:20:08;14.30;99.90
5086;DHT22;4715;51.660;7.082;2024-02-16T08:22:30;14.40;99.90
5086;DHT22;4715;51.660;7.082;2024-02-16T08:24:53;14.40;99.90
5086;DHT22;4715;51.660;7.082;2024-02-16T08:27:18;14.40;99.90
5086;DHT22;4715;51.660;7.082;2024-02-16T08:29:44;14.50;99.90
5086;DHT22;4715;51.660;7.082;2024-02-16T08:32:08;14.50;99.90
5086;DHT22;4715;51.660;7.082;2024-02-16T08:34:30;14.60;99.90
5086;DHT22;4715;51.660;7.082;2024-02-16T08:36:52;14.60;99.90
5086;DHT22;4715;51.660;7.082;2024-02-16T08:39:16;14.60;99.90
5086;DHT22;4715;51.660;7.082;2024-02-16T08:41:40;14.70;99.90
5086;DHT22;4715;51.660;7.082;2024-02-16T08:44:07;14.70;99.90
5086;DHT22;4715;51.660;7.082;2024-02-16T08:46:32;14.80;99.90
5086;DHT22;4715;51.660;7.082;2024-02-16T08:48:54;14.80;99.90
5086;DHT22;4715;51.660;7.082;2024-02-16T08:51:15;14.90;99.90
5086;DHT22;4715;51.660;7.082;2024-02-16T08:53:40;14.90;99.90
5086;DHT22;4715;51.660;7.082;2024-02-16T08:56:03;14.90;99.90
5086;DHT22;4715;51.660;7.082;2024-02-16T08:58:25;15.00;99.90
5086;DHT22;4715;51.660;7.082;2024-02-16T09:00:47;15.00;99.90
5086;DHT22;4715;51.660;7.082;2024-02-16T09:03:10;15.00;99.90
5086;DHT22;4715;51.660;7.082;2024-02-16T09:05:32;15.10;99.90
5086;DHT22;4715;51.660;7.082;2024-02-16T09:07:54;15.10;99.90
5086;DHT22;4715;51.660;7.082;2024-02-16T09:10:16;15.10;99.90
5086;DHT22;4715;51.660;7.082;2024-02-16T09:12:38;15.20;99.90
5086;DHT22;4715;51.660;7.082;2024-02-16T09:15:00;15.30;99.90
5086;DHT22;4715;51.660;7.082;2024-02-16T09:17:22;15.20;99.90
5086;DHT22;4715;51.660;7.082;2024-02-16T09:19:46;15.20;99.90
5086;DHT22;4715;51.660;7.082;2024-02-16T09:22:08;15.30;99.90
5086;DHT22;4715;51.660;7.082;2024-02-16T09:24:30;15.30;99.90
5086;DHT22;4715;51.660;7.082;2024-02-16T09:26:52;15.30;99.90
5086;DHT22;4715;51.660;7.082;2024-02-16T09:29:14;15.30;99.90
5086;DHT22;4715;51.660;7.082;2024-02-16T09:31:37;15.40;99.90
5086;DHT22;4715;51.660;7.082;2024-02-16T09:34:00;15.40;99.90
5086;DHT22;4715;51.660;7.082;2024-02-16T09:36:25;15.40;99.90
5086;DHT22;4715;51.660;7.082;2024-02-16T09:38:46;15.40;99.90
5086;DHT22;4715;51.660;7.082;2024-02-16T09:41:08;15.40;99.90
5086;DHT22;4715;51.660;7.082;2024-02-16T09:43:30;15.40;99.90
5086;DHT22;4715;51.660;7.082;2024-02-16T09:45:54;15.40;99.90
5086;DHT22;4715;51.660;7.082;2024-02-16T09:48:16;15.40;99.90
5086;DHT22;4715;51.660;7.082;2024-02-16T09:50:38;15.40;99.90
5086;DHT22;4715;51.660;7.082;2024-02-16T09:53:04;15.50;99.90
5086;DHT22;4715;51.660;7.082;2024-02-16T09:55:32;15.50;99.90
5086;DHT22;4715;51.660;7.082;2024-02-16T09:58:00;15.50;99.90
5086;DHT22;4715;51.660;7.082;2024-02-16T10:00:25;15.50;99.90
5086;DHT22;4715;51.660;7.082;2024-02-16T10:02:48;15.50;99.90
5086;DHT22;4715;51.660;7.082;2024-02-16T10:05:14;15.50;99.90
5086;DHT22;4715;51.660;7.082;2024-02-16T10:07:39;15.50;99.90
5086;DHT22;4715;51.660;7.082;2024-02-16T10:10:03;15.50;99.90
5086;DHT22;4715;51.660;7.082;2024-02-16T10:12:26;15.50;99.90
5086;DHT22;4715;51.660;7.082;2024-02-16T10:14:56;15.50;99.90
5086;DHT22;4715;51.660;7.082;2024-02-16T10:17:20;15.50;99.90
5086;DHT22;4715;51.660;7.082;2024-02-16T10:19:43;15.50;99.90
5086;DHT22;4715;51.660;7.082;2024-02-16T10:22:08;15.50;99.90
5086;DHT22;4715;51.660;7.082;2024-02-16T10:24:34;15.50;99.90
5086;DHT22;4715;51.660;7.082;2024-02-16T10:26:57;15.50;99.90
5086;DHT22;4715;51.660;7.082;2024-02-16T10:29:19;15.50;99.90
5086;DHT22;4715;51.660;7.082;2024-02-16T10:31:44;15.50;99.90
5086;DHT22;4715;51.660;7.082;2024-02-16T10:34:06;15.50;99.90
5086;DHT22;4715;51.660;7.082;2024-02-16T10:36:31;15.50;99.90
5086;DHT22;4715;51.660;7.082;2024-02-16T10:38:54;15.40;99.90
5086;DHT22;4715;51.660;7.082;2024-02-16T10:41:18;15.50;99.90
5086;DHT22;4715;51.660;7.082;2024-02-16T10:43:49;15.50;99.90
5086;DHT22;4715;51.660;7.082;2024-02-16T10:46:12;15.50;99.90
5086;DHT22;4715;51.660;7.082;2024-02-16T10:48:35;15.50;99.90
5086;DHT22;4715;51.660;7.082;2024-02-16T10:50:58;15.50;99.90
5086;DHT22;4715;51.660;7.082;2024-02-16T10:53:26;15.50;99.90
5086;DHT22;4715;51.660;7.082;2024-02-16T10:55:52;15.50;99.90
5086;DHT22;4715;51.660;7.082;2024-02-16T10:58:17;15.50;99.90
5086;DHT22;4715;51.660;7.082;2024-02-16T11:00:52;15.50;99.90
5086;DHT22;4715;51.660;7.082;2024-02-16T11:03:17;15.50;99.90
5086;DHT22;4715;51.660;7.082;2024-02-16T11:05:48;15.50;99.90
5086;DHT22;4715;51.660;7.082;2024-02-16T11:08:12;15.50;99.90
5086;DHT22;4715;51.660;7.082;2024-02-16T11:10:36;15.50;99.90
5086;DHT22;4715;51.660;7.082;2024-02-16T11:13:02;15.50;99.90
5086;DHT22;4715;51.660;7.082;2024-02-16T11:15:28;15.50;99.90
5086;DHT22;4715;51.660;7.082;2024-02-16T11:17:51;15.50;99.90
5086;DHT22;4715;51.660;7.082;2024-02-16T11:20:13;15.50;99.90
5086;DHT22;4715;51.660;7.082;2024-02-16T11:22:37;15.40;99.90
5086;DHT22;4715;51.660;7.082;2024-02-16T11:24:59;15.50;99.90
5086;DHT22;4715;51.660;7.082;2024-02-16T11:27:23;15.40;99.90
5086;DHT22;4715;51.660;7.082;2024-02-16T11:29:48;15.40;99.90
5086;DHT22;4715;51.660;7.082;2024-02-16T11:32:10;15.40;99.90
5086;DHT22;4715;51.660;7.082;2024-02-16T11:34:34;15.40;99.90
5086;DHT22;4715;51.660;7.082;2024-02-16T11:36:59;15.30;99.90
5086;DHT22;4715;51.660;7.082;2024-02-16T11:39:22;15.30;99.90
5086;DHT22;4715;51.660;7.082;2024-02-16T11:41:44;15.30;99.90
5086;DHT22;4715;51.660;7.082;2024-02-16T11:44:05;15.30;99.90
5086;DHT22;4715;51.660;7.082;2024-02-16T11:46:27;15.30;99.90
5086;DHT22;4715;51.660;7.082;2024-02-16T11:48:49;15.30;99.90
5086;DHT22;4715;51.660;7.082;2024-02-16T11:51:15;15.30;99.90
5086;DHT22;4715;51.660;7.082;2024-02-16T11:53:38;15.20;99.90
5086;DHT22;4715;51.660;7.082;2024-02-16T11:56:00;15.20;99.90
5086;DHT22;4715;51.660;7.082;2024-02-16T11:58:22;15.20;99.90
5086;DHT22;4715;51.660;7.082;2024-02-16T12:00:45;15.20;99.90
5086;DHT22;4715;51.660;7.082;2024-02-16T12:03:08;15.20;99.90
5086;DHT22;4715;51.660;7.082;2024-02-16T12:05:29;15.20;99.90
5086;DHT22;4715;51.660;7.082;2024-02-16T12:07:57;15.10;99.90
5086;DHT22;4715;51.660;7.082;2024-02-16T12:10:22;15.00;99.90
5086;DHT22;4715;51.660;7.082;2024-02-16T12:12:47;15.00;99.90
5086;DHT22;4715;51.660;7.082;2024-02-16T12:15:10;15.00;99.90
5086;DHT22;4715;51.660;7.082;2024-02-16T12:17:34;15.00;99.90
5086;DHT22;4715;51.660;7.082;2024-02-16T12:19:55;15.00;99.90
5086;DHT22;4715;51.660;7.082;2024-02-16T12:22:18;15.00;99.90
5086;DHT22;4715;51.660;7.082;2024-02-16T12:24:41;14.90;99.90
5086;DHT22;4715;51.660;7.082;2024-02-16T12:27:03;15.00;99.90
5086;DHT22;4715;51.660;7.082;2024-02-16T12:29:25;15.00;99.90
5086;DHT22;4715;51.660;7.082;2024-02-16T12:31:47;14.90;99.90
5086;DHT22;4715;51.660;7.082;2024-02-16T12:34:11;15.00;99.90
5086;DHT22;4715;51.660;7.082;2024-02-16T12:36:36;14.90;99.90
5086;DHT22;4715;51.660;7.082;2024-02-16T12:39:00;14.90;99.90
5086;DHT22;4715;51.660;7.082;2024-02-16T12:41:28;14.90;99.90
5086;DHT22;4715;51.660;7.082;2024-02-16T12:43:51;14.90;99.90
5086;DHT22;4715;51.660;7.082;2024-02-16T12:46:13;14.90;99.90
5086;DHT22;4715;51.660;7.082;2024-02-16T12:48:38;14.90;99.90
5086;DHT22;4715;51.660;7.082;2024-02-16T12:51:00;14.90;99.90
5086;DHT22;4715;51.660;7.082;2024-02-16T12:53:22;14.90;99.90
5086;DHT22;4715;51.660;7.082;2024-02-16T12:55:46;14.90;99.90
5086;DHT22;4715;51.660;7.082;2024-02-16T12:58:12;14.90;99.90
5086;DHT22;4715;51.660;7.082;2024-02-16T13:00:34;14.90;99.90
5086;DHT22;4715;51.660;7.082;2024-02-16T13:02:56;14.90;99.90
5086;DHT22;4715;51.660;7.082;2024-02-16T13:05:18;14.90;99.90
5086;DHT22;4715;51.660;7.082;2024-02-16T13:07:40;14.90;99.90
5086;DHT22;4715;51.660;7.082;2024-02-16T13:10:02;14.90;99.90
5086;DHT22;4715;51.660;7.082;2024-02-16T13:12:26;14.90;99.90
5086;DHT22;4715;51.660;7.082;2024-02-16T13:14:49;14.90;99.90
5086;DHT22;4715;51.660;7.082;2024-02-16T13:17:14;14.90;99.90
5086;DHT22;4715;51.660;7.082;2024-02-16T13:19:36;14.80;99.90
5086;DHT22;4715;51.660;7.082;2024-02-16T13:21:58;14.80;99.90
5086;DHT22;4715;51.660;7.082;2024-02-16T13:24:19;14.80;99.90
5086;DHT22;4715;51.660;7.082;2024-02-16T13:26:41;14.80;99.90
5086;DHT22;4715;51.660;7.082;2024-02-16T13:29:03;14.70;99.90
5086;DHT22;4715;51.660;7.082;2024-02-16T13:31:27;14.70;99.90
5086;DHT22;4715;51.660;7.082;2024-02-16T13:33:49;14.70;99.90
5086;DHT22;4715;51.660;7.082;2024-02-16T13:36:11;14.60;99.90
5086;DHT22;4715;51.660;7.082;2024-02-16T13:38:32;14.50;99.90
5086;DHT22;4715;51.660;7.082;2024-02-16T13:40:55;14.40;99.90
5086;DHT22;4715;51.660;7.082;2024-02-16T13:43:17;14.30;99.90
5086;DHT22;4715;51.660;7.082;2024-02-16T13:45:50;14.10;99.90
5086;DHT22;4715;51.660;7.082;2024-02-16T13:48:13;14.00;99.90
5086;DHT22;4715;51.660;7.082;2024-02-16T13:50:35;13.80;99.90
5086;DHT22;4715;51.660;7.082;2024-02-16T13:52:59;13.70;99.90
5086;DHT22;4715;51.660;7.082;2024-02-16T13:55:21;13.60;99.90
5086;DHT22;4715;51.660;7.082;2024-02-16T13:57:43;13.60;99.90
5086;DHT22;4715;51.660;7.082;2024-02-16T14:00:06;13.50;99.90
5086;DHT22;4715;51.660;7.082;2024-02-16T14:02:28;13.40;99.90
5086;DHT22;4715;51.660;7.082;2024-02-16T14:04:51;13.40;99.90
5086;DHT22;4715;51.660;7.082;2024-02-16T14:07:13;13.40;99.90
5086;DHT22;4715;51.660;7.082;2024-02-16T14:09:36;13.30;99.90
5086;DHT22;4715;51.660;7.082;2024-02-16T14:11:59;13.40;99.90
5086;DHT22;4715;51.660;7.082;2024-02-16T14:14:21;13.30;99.90
5086;DHT22;4715;51.660;7.082;2024-02-16T14:16:44;13.30;99.90
5086;DHT22;4715;51.660;7.082;2024-02-16T14:19:06;13.30;99.90
5086;DHT22;4715;51.660;7.082;2024-02-16T14:21:30;13.30;99.90
5086;DHT22;4715;51.660;7.082;2024-02-16T14:23:53;13.30;99.90
5086;DHT22;4715;51.660;7.082;2024-02-16T14:26:15;13.30;99.90
5086;DHT22;4715;51.660;7.082;2024-02-16T14:28:38;13.30;99.90
5086;DHT22;4715;51.660;7.082;2024-02-16T14:30:59;13.30;99.90
5086;DHT22;4715;51.660;7.082;2024-02-16T14:33:21;13.30;99.90
5086;DHT22;4715;51.660;7.082;2024-02-16T14:35:43;13.30;99.90
5086;DHT22;4715;51.660;7.082;2024-02-16T14:38:07;13.30;99.90
5086;DHT22;4715;51.660;7.082;2024-02-16T14:40:30;13.30;99.90
5086;DHT22;4715;51.660;7.082;2024-02-16T14:42:53;13.30;99.90
5086;DHT22;4715;51.660;7.082;2024-02-16T14:45:15;13.30;99.90
5086;DHT22;4715;51.660;7.082;2024-02-16T14:47:41;13.30;99.90
5086;DHT22;4715;51.660;7.082;2024-02-16T14:50:06;13.30;99.90
5086;DHT22;4715;51.660;7.082;2024-02-16T14:52:29;13.30;99.90
5086;DHT22;4715;51.660;7.082;2024-02-16T14:54:52;13.30;99.90
5086;DHT22;4715;51.660;7.082;2024-02-16T14:57:15;13.30;99.90
5086;DHT22;4715;51.660;7.082;2024-02-16T14:59:40;13.30;99.90
5086;DHT22;4715;51.660;7.082;2024-02-16T15:02:04;13.20;99.90
5086;DHT22;4715;51.660;7.082;2024-02-16T15:04:27;13.20;99.90
5086;DHT22;4715;51.660;7.082;2024-02-16T15:06:54;13.20;99.90
5086;DHT22;4715;51.660;7.082;2024-02-16T15:09:18;13.20;99.90
5086;DHT22;4715;51.660;7.082;2024-02-16T15:11:42;13.20;99.90
5086;DHT22;4715;51.660;7.082;2024-02-16T15:14:04;13.30;99.90
5086;DHT22;4715;51.660;7.082;2024-02-16T15:16:28;13.30;99.90
5086;DHT22;4715;51.660;7.082;2024-02-16T15:18:51;13.30;99.90
5086;DHT22;4715;51.660;7.082;2024-02-16T15:21:14;13.30;99.90
5086;DHT22;4715;51.660;7.082;2024-02-16T15:23:35;13.30;99.90
5086;DHT22;4715;51.660;7.082;2024-02-16T15:25:57;13.30;99.90
5086;DHT22;4715;51.660;7.082;2024-02-16T15:28:21;13.30;99.90
5086;DHT22;4715;51.660;7.082;2024-02-16T15:30:43;13.30;99.90
5086;DHT22;4715;51.660;7.082;2024-02-16T15:33:05;13.20;99.90
5086;DHT22;4715;51.660;7.082;2024-02-16T15:35:36;13.30;99.90